CPA812A VHHH-KBOS
Flight info
| Callsign | CPA812A |
|---|---|
| Flight time | N/A |
| Altitude | 33000 |
| Route | DALOL V631 ENVAR M750 IMPAL Y755 CARDS DCT HIOTI DCT CBE Y121 SWING Y88 DAIGO Y889 OATIS R580 ONEIL DCT ECOMI DCT NAYLD/N0492F350 DCT MCG DCT ORT NCA15 EMSOW DCT 62N130W 60N120W/N0486F370 58N112W DCT TULAG Q963 PETMA DCT KENRU DCT 5330N10000W 49N090W DCT SSM DCT NOTAP DCT YEE DCT TULEG DCT PONCT JFUND2 |
| Aircraft | A35K/H-SDE2E3GHIJ3J4J5LM1ORWXY/LB1D1 |
Departure
| Time | 2026-05-04 22:48 |
|---|---|
| Airport | Hong Kong International Airport (VHHH) |
Arrival
| Time | N/A |
|---|---|
| Airport | Boston Logan International Airport (KBOS) |
| Time | Latitude | Longitude | Altitude | Speed | Heading |
|---|---|---|---|---|---|
| 2026-05-04 22:27 | 22.31172 | 113.92777 | 38 ft | 0 kts | 296° |
| 2026-05-04 22:33 | 22.31171 | 113.92778 | 38 ft | 2 kts | 296° |
| 2026-05-04 22:34 | 22.31162 | 113.92799 | 36 ft | 2 kts | 296° |
| 2026-05-04 22:34 | 22.31154 | 113.92825 | 34 ft | 4 kts | 276° |
| 2026-05-04 22:34 | 22.31155 | 113.92853 | 34 ft | 4 kts | 252° |
| 2026-05-04 22:34 | 22.31166 | 113.92880 | 36 ft | 4 kts | 241° |
| 2026-05-04 22:35 | 22.31176 | 113.92902 | 35 ft | 3 kts | 251° |
| 2026-05-04 22:35 | 22.31185 | 113.92929 | 36 ft | 4 kts | 251° |
| 2026-05-04 22:35 | 22.31188 | 113.92939 | 34 ft | 0 kts | 251° |
| 2026-05-04 22:39 | 22.31183 | 113.92931 | 35 ft | 3 kts | 240° |
| 2026-05-04 22:39 | 22.31154 | 113.92893 | 36 ft | 9 kts | 220° |
| 2026-05-04 22:40 | 22.31093 | 113.92850 | 38 ft | 12 kts | 209° |
| 2026-05-04 22:40 | 22.31010 | 113.92807 | 38 ft | 15 kts | 205° |
| 2026-05-04 22:40 | 22.30910 | 113.92755 | 38 ft | 17 kts | 206° |
| 2026-05-04 22:40 | 22.30823 | 113.92662 | 38 ft | 19 kts | 245° |
| 2026-05-04 22:41 | 22.30774 | 113.92518 | 38 ft | 22 kts | 250° |
| 2026-05-04 22:41 | 22.30722 | 113.92360 | 38 ft | 23 kts | 250° |
| 2026-05-04 22:41 | 22.30679 | 113.92222 | 38 ft | 14 kts | 257° |
| 2026-05-04 22:41 | 22.30732 | 113.92150 | 38 ft | 14 kts | 344° |
| 2026-05-04 22:42 | 22.30841 | 113.92112 | 38 ft | 21 kts | 341° |
| 2026-05-04 22:42 | 22.30995 | 113.92056 | 38 ft | 25 kts | 341° |
| 2026-05-04 22:42 | 22.31168 | 113.91993 | 38 ft | 28 kts | 341° |
| 2026-05-04 22:42 | 22.31359 | 113.91922 | 38 ft | 30 kts | 341° |
| 2026-05-04 22:43 | 22.31532 | 113.91855 | 38 ft | 17 kts | 339° |
| 2026-05-04 22:43 | 22.31547 | 113.91837 | 38 ft | 7 kts | 295° |
| 2026-05-04 22:43 | 22.31535 | 113.91747 | 38 ft | 17 kts | 253° |
| 2026-05-04 22:43 | 22.31487 | 113.91593 | 38 ft | 26 kts | 249° |
| 2026-05-04 22:44 | 22.31417 | 113.91384 | 38 ft | 33 kts | 252° |
| 2026-05-04 22:44 | 22.31336 | 113.91126 | 38 ft | 38 kts | 251° |
| 2026-05-04 22:44 | 22.31267 | 113.90914 | 38 ft | 24 kts | 250° |
| 2026-05-04 22:44 | 22.31212 | 113.90746 | 38 ft | 24 kts | 250° |
| 2026-05-04 22:45 | 22.31160 | 113.90580 | 37 ft | 23 kts | 251° |
| 2026-05-04 22:45 | 22.31055 | 113.90255 | 38 ft | 22 kts | 250° |
| 2026-05-04 22:45 | 22.31005 | 113.90098 | 38 ft | 22 kts | 251° |
| 2026-05-04 22:46 | 22.30957 | 113.89951 | 38 ft | 14 kts | 251° |
| 2026-05-04 22:46 | 22.30968 | 113.89911 | 38 ft | 5 kts | 321° |
| 2026-05-04 22:46 | 22.31043 | 113.89876 | 36 ft | 12 kts | 339° |
| 2026-05-04 22:46 | 22.31100 | 113.89863 | 36 ft | 6 kts | 14° |
| 2026-05-04 22:47 | 22.31116 | 113.89887 | 36 ft | 0 kts | 66° |
| 2026-05-04 22:47 | 22.31116 | 113.89888 | 36 ft | 1 kts | 66° |
| 2026-05-04 22:48 | 22.31161 | 113.90024 | 36 ft | 48 kts | 70° |
| 2026-05-04 22:48 | 22.31351 | 113.90607 | 37 ft | 116 kts | 71° |
| 2026-05-04 22:48 | 22.31688 | 113.91651 | 40 ft | 177 kts | 70° |
| 2026-05-04 22:48 | 22.32116 | 113.92951 | 745 ft | 179 kts | 69° |
| 2026-05-04 22:49 | 22.32535 | 113.94178 | 1778 ft | 172 kts | 70° |
| 2026-05-04 22:49 | 22.32978 | 113.95448 | 2131 ft | 187 kts | 70° |
| 2026-05-04 22:49 | 22.33439 | 113.96827 | 2304 ft | 203 kts | 72° |
| 2026-05-04 22:49 | 22.33791 | 113.98349 | 2483 ft | 217 kts | 81° |
| 2026-05-04 22:50 | 22.33935 | 114.00028 | 2646 ft | 233 kts | 90° |
| 2026-05-04 22:50 | 22.33671 | 114.01799 | 2872 ft | 245 kts | 109° |
| 2026-05-04 22:50 | 22.32832 | 114.03423 | 3334 ft | 249 kts | 130° |
| 2026-05-04 22:50 | 22.31544 | 114.04636 | 3929 ft | 244 kts | 147° |
| 2026-05-04 22:51 | 22.30105 | 114.05597 | 4440 ft | 243 kts | 151° |
| 2026-05-04 22:51 | 22.28640 | 114.06524 | 4867 ft | 245 kts | 151° |
| 2026-05-04 22:51 | 22.27170 | 114.07463 | 5319 ft | 246 kts | 151° |
| 2026-05-04 22:51 | 22.25669 | 114.08353 | 5695 ft | 248 kts | 161° |
| 2026-05-04 22:52 | 22.23985 | 114.08716 | 5984 ft | 250 kts | 181° |
| 2026-05-04 22:52 | 22.22198 | 114.08727 | 6189 ft | 263 kts | 184° |
| 2026-05-04 22:52 | 22.20328 | 114.08686 | 6413 ft | 275 kts | 184° |
| 2026-05-04 22:52 | 22.18393 | 114.08673 | 6786 ft | 280 kts | 180° |
| 2026-05-04 22:53 | 22.16490 | 114.09190 | 7230 ft | 289 kts | 153° |
| 2026-05-04 22:53 | 22.15026 | 114.10676 | 7686 ft | 295 kts | 123° |
| 2026-05-04 22:53 | 22.14046 | 114.12628 | 8194 ft | 297 kts | 117° |
| 2026-05-04 22:53 | 22.13139 | 114.14639 | 8708 ft | 299 kts | 118° |
| 2026-05-04 22:54 | 22.12224 | 114.16642 | 9162 ft | 303 kts | 118° |
| 2026-05-04 22:54 | 22.11262 | 114.18709 | 9667 ft | 306 kts | 118° |
| 2026-05-04 22:54 | 22.10309 | 114.20737 | 10131 ft | 309 kts | 119° |
| 2026-05-04 22:54 | 22.09301 | 114.22866 | 10366 ft | 321 kts | 119° |
| 2026-05-04 22:55 | 22.08260 | 114.25003 | 10582 ft | 332 kts | 122° |
| 2026-05-04 22:55 | 22.06780 | 114.26939 | 10764 ft | 339 kts | 143° |
| 2026-05-04 22:55 | 22.04891 | 114.28508 | 10969 ft | 349 kts | 147° |
| 2026-05-04 22:55 | 22.02889 | 114.30058 | 11176 ft | 360 kts | 147° |
| 2026-05-04 22:56 | 22.00833 | 114.31654 | 11368 ft | 370 kts | 147° |
| 2026-05-04 22:56 | 21.98720 | 114.33305 | 11571 ft | 380 kts | 147° |
| 2026-05-04 22:56 | 21.96558 | 114.35002 | 11749 ft | 389 kts | 147° |
| 2026-05-04 22:56 | 21.94353 | 114.36742 | 11915 ft | 398 kts | 147° |
| 2026-05-04 22:57 | 21.92095 | 114.38520 | 12128 ft | 404 kts | 147° |
| 2026-05-04 22:57 | 21.89813 | 114.40313 | 12439 ft | 408 kts | 147° |
| 2026-05-04 22:57 | 21.87520 | 114.42129 | 12782 ft | 410 kts | 145° |
| 2026-05-04 22:57 | 21.85454 | 114.44272 | 13091 ft | 418 kts | 129° |